Time;durP1;ratioP1;P1;durP2;ratioP2;P2;SDS_P1;SDS_P2;PMS_P1;PMS_P2;Temp;Humidity;BMP_temperature;BMP_pressure;BME280_temperature;BME280_humidity;BME280_pressure;Samples;Min_cycle;Max_cycle;Signal;HPM_P1;HPM_P2
2020/12/25 00:00:24;;;;;;;10.55;6.70;;;;;;;;;;5113197;28;20072;-18
2020/12/25 00:02:50;;;;;;;15.75;6.50;;;;;;;;;;5113174;28;20027;-18
2020/12/25 00:05:15;;;;;;;14.05;7.07;;;;;;;;;;5111711;28;20134;-17
2020/12/25 00:07:41;;;;;;;12.15;6.65;;;;;;;;;;5111562;28;20051;-17
2020/12/25 00:10:06;;;;;;;13.52;7.65;;;;;;;;;;5113147;28;20015;-18
2020/12/25 00:12:31;;;;;;;16.95;7.80;;;;;;;;;;5112942;28;20035;-18
2020/12/25 00:14:57;;;;;;;11.88;6.93;;;;;;;;;;5112785;28;20420;-19
2020/12/25 00:17:22;;;;;;;22.23;7.40;;;;;;;;;;5111484;28;20071;-18
2020/12/25 00:19:48;;;;;;;11.70;7.03;;;;;;;;;;5112726;28;20454;-18
2020/12/25 00:22:13;;;;;;;15.27;6.70;;;;;;;;;;5112599;28;20066;-27
2020/12/25 00:24:40;;;;;;;21.02;9.15;;;;;;;;;;5112823;28;20034;-18
2020/12/25 00:27:06;;;;;;;17.20;9.23;;;;;;;;;;5111314;28;20123;-18
2020/12/25 00:29:31;;;;;;;16.48;8.63;;;;;;;;;;5111320;28;20094;-19
2020/12/25 00:31:56;;;;;;;16.63;8.13;;;;;;;;;;5111265;28;20462;-19
2020/12/25 00:34:22;;;;;;;13.60;6.15;;;;;;;;;;5112815;28;20030;-18
2020/12/25 00:36:47;;;;;;;11.80;6.35;;;;;;;;;;5111359;28;20031;-18
2020/12/25 00:39:16;;;;;;;13.80;7.25;;;;;;;;;;5111386;28;20035;-18
2020/12/25 00:41:43;;;;;;;10.90;6.63;;;;;;;;;;5112806;28;20028;-18
2020/12/25 00:44:08;;;;;;;14.65;7.93;;;;;;;;;;5112544;28;20374;-18
2020/12/25 00:46:35;;;;;;;15.35;7.60;;;;;;;;;;5115284;28;20476;-18
2020/12/25 00:49:01;;;;;;;16.98;8.50;;;;;;;;;;5116578;28;20134;-18
2020/12/25 00:51:28;;;;;;;20.38;9.43;;;;;;;;;;5115042;28;20092;-18
2020/12/25 00:53:54;;;;;;;18.13;9.52;;;;;;;;;;5115093;28;20042;-17
2020/12/25 00:56:27;;;;;;;20.58;9.63;;;;;;;;;;5114963;28;20055;-18
2020/12/25 00:58:53;;;;;;;17.48;8.45;;;;;;;;;;5115142;28;20104;-18
2020/12/25 01:01:25;;;;;;;21.80;10.05;;;;;;;;;;5098817;28;20465;-17
2020/12/25 01:03:50;;;;;;;21.20;8.35;;;;;;;;;;5116191;28;20033;-19
2020/12/25 01:06:15;;;;;;;18.65;9.98;;;;;;;;;;5114955;28;20016;-18
2020/12/25 01:08:42;;;;;;;16.48;8.50;;;;;;;;;;5115003;28;20039;-18
2020/12/25 01:11:08;;;;;;;12.20;7.38;;;;;;;;;;5116102;28;20020;-18
2020/12/25 01:13:33;;;;;;;11.65;7.47;;;;;;;;;;5114744;28;20500;-19
2020/12/25 01:16:03;;;;;;;38.22;15.15;;;;;;;;;;5116055;28;20477;-17
2020/12/25 01:18:29;;;;;;;22.15;9.98;;;;;;;;;;5116184;28;20031;-18
2020/12/25 01:20:54;;;;;;;16.13;8.43;;;;;;;;;;5115912;28;20045;-18
2020/12/25 01:23:19;;;;;;;19.05;8.60;;;;;;;;;;5116130;28;20038;-18
2020/12/25 01:25:45;;;;;;;22.55;7.28;;;;;;;;;;5115900;28;20499;-18
2020/12/25 01:28:10;;;;;;;18.42;10.02;;;;;;;;;;5114456;28;20028;-18
2020/12/25 01:30:36;;;;;;;16.73;10.35;;;;;;;;;;5116013;28;20015;-18
2020/12/25 01:33:01;;;;;;;24.52;10.55;;;;;;;;;;5115538;28;20482;-18
2020/12/25 01:35:26;;;;;;;12.43;6.35;;;;;;;;;;5115816;28;20041;-18
2020/12/25 01:37:52;;;;;;;17.42;6.90;;;;;;;;;;5115696;28;20114;-18
2020/12/25 01:40:17;;;;;;;11.95;6.75;;;;;;;;;;5115552;28;20016;-18
2020/12/25 01:42:43;;;;;;;14.95;8.10;;;;;;;;;;5115756;28;20457;-18
2020/12/25 01:45:08;;;;;;;15.07;7.85;;;;;;;;;;5115490;28;20055;-18
2020/12/25 01:47:33;;;;;;;13.35;7.82;;;;;;;;;;5115340;28;20508;-19
2020/12/25 01:49:59;;;;;;;16.33;7.43;;;;;;;;;;5115287;28;20063;-19
2020/12/25 01:52:25;;;;;;;11.32;6.93;;;;;;;;;;5115436;28;20036;-18
2020/12/25 01:54:50;;;;;;;15.75;7.03;;;;;;;;;;5115286;28;20505;-18
2020/12/25 01:57:16;;;;;;;10.70;5.63;;;;;;;;;;5113982;28;20034;-18
2020/12/25 01:59:42;;;;;;;16.80;7.18;;;;;;;;;;5115496;28;20103;-18
2020/12/25 02:02:08;;;;;;;16.15;7.75;;;;;;;;;;5115127;28;20466;-18
2020/12/25 02:04:34;;;;;;;13.85;7.03;;;;;;;;;;5113729;28;20023;-18
2020/12/25 02:07:00;;;;;;;13.95;6.40;;;;;;;;;;5115056;28;20024;-18
2020/12/25 02:09:25;;;;;;;10.98;5.82;;;;;;;;;;5115303;28;20020;-19
2020/12/25 02:11:51;;;;;;;14.90;5.35;;;;;;;;;;5114888;28;20409;-18
2020/12/25 02:14:16;;;;;;;14.23;6.75;;;;;;;;;;5114946;28;20023;-17
2020/12/25 02:16:42;;;;;;;12.23;6.13;;;;;;;;;;5114907;28;20073;-18
2020/12/25 02:19:08;;;;;;;8.02;4.82;;;;;;;;;;5113531;28;20509;-18
2020/12/25 02:21:33;;;;;;;10.00;4.78;;;;;;;;;;5114729;28;20024;-17
2020/12/25 02:23:58;;;;;;;11.95;6.05;;;;;;;;;;5114823;28;20015;-17
2020/12/25 02:26:24;;;;;;;10.88;5.22;;;;;;;;;;5114725;28;20034;-18
2020/12/25 02:28:49;;;;;;;8.20;4.65;;;;;;;;;;5114833;28;20038;-18
2020/12/25 02:31:15;;;;;;;7.00;4.05;;;;;;;;;;5114562;28;20031;-18
2020/12/25 02:33:40;;;;;;;7.53;4.68;;;;;;;;;;5114549;27;20422;-18
2020/12/25 02:36:06;;;;;;;7.43;4.60;;;;;;;;;;5114450;28;20072;-18
2020/12/25 02:38:31;;;;;;;6.93;4.00;;;;;;;;;;5114469;28;20071;-18
2020/12/25 02:40:56;;;;;;;7.63;5.18;;;;;;;;;;5114541;28;20048;-18
2020/12/25 02:43:22;;;;;;;11.10;6.32;;;;;;;;;;5114222;28;20019;-18
2020/12/25 02:45:47;;;;;;;13.93;5.63;;;;;;;;;;5114640;28;20015;-18
2020/12/25 02:48:13;;;;;;;15.40;5.70;;;;;;;;;;5113004;28;20027;-18
2020/12/25 02:50:38;;;;;;;14.63;5.07;;;;;;;;;;5112716;28;20127;-18
2020/12/25 02:53:04;;;;;;;9.57;4.80;;;;;;;;;;5114372;28;20036;-18
2020/12/25 02:55:33;;;;;;;9.43;5.20;;;;;;;;;;5114012;28;20024;-20
2020/12/25 02:57:58;;;;;;;10.02;5.18;;;;;;;;;;5114328;28;20031;-19
2020/12/25 03:00:24;;;;;;;10.63;6.57;;;;;;;;;;5114058;28;20462;-17
2020/12/25 03:02:49;;;;;;;12.00;5.82;;;;;;;;;;5114227;28;20044;-19
2020/12/25 03:05:14;;;;;;;11.70;5.45;;;;;;;;;;5112578;28;20608;-18
2020/12/25 03:07:40;;;;;;;10.02;5.38;;;;;;;;;;5113769;28;20026;-18
2020/12/25 03:10:05;;;;;;;11.90;6.38;;;;;;;;;;5113808;28;20115;-20
2020/12/25 03:12:30;;;;;;;14.70;6.55;;;;;;;;;;5113609;28;20035;-19
2020/12/25 03:14:56;;;;;;;14.32;7.28;;;;;;;;;;5113684;28;20535;-18
2020/12/25 03:17:21;;;;;;;16.38;7.70;;;;;;;;;;5113725;28;20027;-18
2020/12/25 03:19:47;;;;;;;19.65;7.70;;;;;;;;;;5113620;28;20034;-19
2020/12/25 03:22:12;;;;;;;18.80;7.00;;;;;;;;;;5113674;28;20053;-18
2020/12/25 03:24:37;;;;;;;20.80;7.72;;;;;;;;;;5113815;28;20106;-18
2020/12/25 03:27:03;;;;;;;21.40;8.15;;;;;;;;;;5112302;28;20032;-18
2020/12/25 03:29:28;;;;;;;19.42;8.90;;;;;;;;;;5112051;28;20024;-17
2020/12/25 03:31:53;;;;;;;17.52;8.35;;;;;;;;;;5113543;28;20019;-18
2020/12/25 03:34:19;;;;;;;16.35;8.75;;;;;;;;;;5113541;28;20385;-19
2020/12/25 03:36:44;;;;;;;15.18;7.40;;;;;;;;;;5113442;28;20541;-17
2020/12/25 03:39:10;;;;;;;14.25;6.78;;;;;;;;;;5113239;28;20051;-18
2020/12/25 03:41:35;;;;;;;12.73;7.32;;;;;;;;;;5111884;28;20027;-18
2020/12/25 03:44:00;;;;;;;12.10;6.70;;;;;;;;;;5113255;28;20420;-18
2020/12/25 03:46:32;;;;;;;15.93;8.15;;;;;;;;;;5113353;28;20039;-18
2020/12/25 03:48:57;;;;;;;15.48;6.78;;;;;;;;;;5111989;28;20405;-18
2020/12/25 03:51:22;;;;;;;11.43;6.85;;;;;;;;;;5112958;28;20123;-18
2020/12/25 03:53:48;;;;;;;19.98;7.63;;;;;;;;;;5111708;28;20091;-17
2020/12/25 03:56:15;;;;;;;14.40;7.93;;;;;;;;;;5111773;28;20379;-17
2020/12/25 03:58:40;;;;;;;18.48;7.15;;;;;;;;;;5113280;28;20051;-19
2020/12/25 04:01:06;;;;;;;13.15;6.95;;;;;;;;;;5111715;28;20494;-18
2020/12/25 04:03:31;;;;;;;14.13;7.10;;;;;;;;;;5112912;28;20367;-18
2020/12/25 04:05:57;;;;;;;18.40;7.40;;;;;;;;;;5113206;28;20483;-17
2020/12/25 04:08:22;;;;;;;15.13;6.38;;;;;;;;;;5113085;28;20035;-18
2020/12/25 04:10:47;;;;;;;13.00;7.15;;;;;;;;;;5112962;28;20397;-19
2020/12/25 04:13:13;;;;;;;12.77;5.85;;;;;;;;;;5113016;28;20474;-18
2020/12/25 04:15:38;;;;;;;11.30;5.40;;;;;;;;;;5112678;28;20546;-18
2020/12/25 04:18:03;;;;;;;12.30;5.68;;;;;;;;;;5112808;28;20041;-18
2020/12/25 04:20:29;;;;;;;9.13;5.50;;;;;;;;;;5114092;28;20016;-18
2020/12/25 04:22:54;;;;;;;9.32;5.60;;;;;;;;;;5118581;28;20054;-17
2020/12/25 04:25:20;;;;;;;7.28;4.25;;;;;;;;;;5119576;27;20382;-19
2020/12/25 04:27:45;;;;;;;9.30;4.00;;;;;;;;;;5118319;28;20122;-17
2020/12/25 04:30:10;;;;;;;6.97;3.08;;;;;;;;;;5101156;28;20629;-19
2020/12/25 04:32:36;;;;;;;4.13;2.78;;;;;;;;;;5119319;28;20035;-19
2020/12/25 04:35:01;;;;;;;7.07;3.47;;;;;;;;;;5119561;28;20020;-20
2020/12/25 04:37:27;;;;;;;6.95;3.80;;;;;;;;;;5119400;28;20047;-18
2020/12/25 04:39:52;;;;;;;6.00;3.17;;;;;;;;;;5119464;27;20023;-18
2020/12/25 04:42:18;;;;;;;6.85;2.97;;;;;;;;;;5119624;27;20019;-18
2020/12/25 04:44:43;;;;;;;4.82;2.60;;;;;;;;;;5119325;28;20016;-18
2020/12/25 04:47:09;;;;;;;3.45;2.25;;;;;;;;;;5119754;27;20027;-18
2020/12/25 04:49:36;;;;;;;2.13;1.60;;;;;;;;;;5118048;28;20051;-18
2020/12/25 04:52:02;;;;;;;2.88;1.83;;;;;;;;;;5119183;28;20506;-18
2020/12/25 04:54:27;;;;;;;2.15;1.48;;;;;;;;;;5119290;27;20030;-18
2020/12/25 04:56:53;;;;;;;2.63;1.67;;;;;;;;;;5119253;28;20032;-19
2020/12/25 04:59:18;;;;;;;2.13;1.20;;;;;;;;;;5119429;27;20047;-18
2020/12/25 05:01:43;;;;;;;1.63;1.00;;;;;;;;;;5119241;28;20478;-18
2020/12/25 05:04:18;;;;;;;0.90;0.77;;;;;;;;;;5119473;28;20108;-18
2020/12/25 05:06:45;;;;;;;1.15;0.80;;;;;;;;;;5117923;28;20069;-25
2020/12/25 05:09:13;;;;;;;7.25;1.73;;;;;;;;;;5119211;27;20023;-18
2020/12/25 05:11:39;;;;;;;0.80;0.57;;;;;;;;;;5119076;27;20030;-18
2020/12/25 05:14:04;;;;;;;1.20;0.38;;;;;;;;;;5119092;28;20028;-17
2020/12/25 05:16:30;;;;;;;10.95;0.60;;;;;;;;;;5117740;28;20042;-17
2020/12/25 05:18:56;;;;;;;0.52;0.40;;;;;;;;;;5119282;27;20062;-18
2020/12/25 05:21:21;;;;;;;0.57;0.22;;;;;;;;;;5117645;28;20474;-18
2020/12/25 05:23:50;;;;;;;1.27;0.30;;;;;;;;;;5119047;27;20019;-17
2020/12/25 05:26:15;;;;;;;0.30;0.28;;;;;;;;;;5117755;28;20118;-18
2020/12/25 05:28:42;;;;;;;0.20;0.20;;;;;;;;;;5118939;27;20493;-18
2020/12/25 05:31:07;;;;;;;0.95;0.50;;;;;;;;;;5118329;27;20478;-18
2020/12/25 05:33:33;;;;;;;0.30;0.30;;;;;;;;;;5115813;28;20038;-17
2020/12/25 05:36:01;;;;;;;0.30;0.20;;;;;;;;;;5116003;28;20031;-16
2020/12/25 05:38:27;;;;;;;0.22;0.13;;;;;;;;;;5115663;28;20026;-17
2020/12/25 05:40:53;;;;;;;0.13;0.13;;;;;;;;;;5114315;28;20027;-17
2020/12/25 05:43:19;;;;;;;1.02;0.40;;;;;;;;;;5115731;28;20015;-17
2020/12/25 05:45:44;;;;;;;0.10;0.10;;;;;;;;;;5097234;28;20376;-18
2020/12/25 05:48:10;;;;;;;1.17;0.35;;;;;;;;;;5114142;28;20019;-18
2020/12/25 05:50:36;;;;;;;0.10;0.10;;;;;;;;;;5115360;28;20048;-18
2020/12/25 05:53:02;;;;;;;0.40;0.40;;;;;;;;;;5114019;28;20043;-18
2020/12/25 05:55:27;;;;;;;2.55;0.82;;;;;;;;;;5115152;28;20034;-18
2020/12/25 05:57:54;;;;;;;0.40;0.28;;;;;;;;;;5114015;28;20015;-18
2020/12/25 06:00:20;;;;;;;0.32;0.32;;;;;;;;;;5113907;28;20088;-18
2020/12/25 06:02:46;;;;;;;0.52;0.40;;;;;;;;;;5096861;28;20401;-19
2020/12/25 06:05:15;;;;;;;0.88;0.40;;;;;;;;;;5115168;28;20466;-18
2020/12/25 06:07:54;;;;;;;0.65;0.40;;;;;;;;;;5115128;28;20023;-19
2020/12/25 06:10:27;;;;;;;0.70;0.43;;;;;;;;;;5114903;28;20036;-18
2020/12/25 06:12:53;;;;;;;0.17;0.17;;;;;;;;;;5113626;28;20043;-18
2020/12/25 06:15:32;;;;;;;0.10;0.10;;;;;;;;;;5113596;28;20031;-18
2020/12/25 06:18:03;;;;;;;1.13;0.38;;;;;;;;;;5114851;28;20067;-18
2020/12/25 06:20:33;;;;;;;0.45;0.28;;;;;;;;;;5114825;28;20514;-18
2020/12/25 06:22:58;;;;;;;0.52;0.40;;;;;;;;;;5114982;28;20020;-17
2020/12/25 06:25:24;;;;;;;7.60;0.50;;;;;;;;;;5115012;27;20383;-18
2020/12/25 06:27:50;;;;;;;0.28;0.20;;;;;;;;;;5114804;28;20385;-18
2020/12/25 06:30:23;;;;;;;0.15;0.15;;;;;;;;;;5114738;27;20366;-19
2020/12/25 06:32:49;;;;;;;0.20;0.20;;;;;;;;;;5113236;28;20497;-18
2020/12/25 06:35:15;;;;;;;0.20;0.20;;;;;;;;;;5114221;28;20384;-18
2020/12/25 06:37:40;;;;;;;0.10;0.10;;;;;;;;;;5113346;28;20027;-18
2020/12/25 06:40:06;;;;;;;0.32;0.30;;;;;;;;;;5114470;28;20023;-18
2020/12/25 06:42:34;;;;;;;0.52;0.30;;;;;;;;;;5112885;28;20032;-17
2020/12/25 06:45:07;;;;;;;0.70;0.35;;;;;;;;;;5112512;28;20016;-18
2020/12/25 06:47:33;;;;;;;0.30;0.30;;;;;;;;;;5114686;27;20028;-17
2020/12/25 06:50:06;;;;;;;2.28;0.30;;;;;;;;;;5114210;28;20034;-18
2020/12/25 06:52:31;;;;;;;1.23;1.13;;;;;;;;;;5114054;27;20118;-18
2020/12/25 06:54:57;;;;;;;0.60;0.40;;;;;;;;;;5114219;28;20051;-19
2020/12/25 06:57:24;;;;;;;0.85;0.38;;;;;;;;;;5114097;27;20057;-19
2020/12/25 06:59:51;;;;;;;1.10;0.30;;;;;;;;;;5112778;28;20115;-19
2020/12/25 07:02:18;;;;;;;0.30;0.28;;;;;;;;;;5114342;28;20078;-17
2020/12/25 07:04:43;;;;;;;0.05;0.05;;;;;;;;;;5114144;28;20429;-18
2020/12/25 07:07:09;;;;;;;1.38;0.20;;;;;;;;;;5114005;28;20059;-19
2020/12/25 07:09:45;;;;;;;0.00;0.00;;;;;;;;;;5114163;28;20011;-17
2020/12/25 07:12:21;;;;;;;2.00;0.35;;;;;;;;;;5112436;28;20031;-18
2020/12/25 07:14:47;;;;;;;0.70;0.30;;;;;;;;;;5112490;28;20389;-19
2020/12/25 07:17:12;;;;;;;0.10;0.10;;;;;;;;;;5114087;28;20023;-18
2020/12/25 07:19:39;;;;;;;1.95;0.30;;;;;;;;;;5112367;28;20447;-17
2020/12/25 07:22:05;;;;;;;0.45;0.35;;;;;;;;;;5113665;28;20480;-19
2020/12/25 07:24:31;;;;;;;1.45;0.50;;;;;;;;;;5112296;28;20390;-19
2020/12/25 07:26:56;;;;;;;0.55;0.20;;;;;;;;;;5113556;28;20019;-18
2020/12/25 07:29:22;;;;;;;0.88;0.30;;;;;;;;;;5113482;28;20036;-17
2020/12/25 07:31:48;;;;;;;2.58;0.30;;;;;;;;;;5113472;28;20138;-18
2020/12/25 07:34:18;;;;;;;1.00;0.28;;;;;;;;;;5112101;28;20505;-18
2020/12/25 07:36:44;;;;;;;0.15;0.13;;;;;;;;;;5113679;28;20363;-18
2020/12/25 07:39:09;;;;;;;0.32;0.32;;;;;;;;;;5113370;28;20031;-19
2020/12/25 07:41:35;;;;;;;0.57;0.25;;;;;;;;;;5111842;28;20580;-18
2020/12/25 07:44:02;;;;;;;0.30;0.20;;;;;;;;;;5111972;28;20119;-19
2020/12/25 07:46:29;;;;;;;0.10;0.10;;;;;;;;;;5111825;28;20027;-19
2020/12/25 07:48:55;;;;;;;0.40;0.30;;;;;;;;;;5113262;28;20037;-18
2020/12/25 07:51:21;;;;;;;0.85;0.20;;;;;;;;;;5111596;28;20054;-18
2020/12/25 07:53:56;;;;;;;0.30;0.28;;;;;;;;;;5095115;28;20039;-17
2020/12/25 07:56:23;;;;;;;0.35;0.30;;;;;;;;;;5112300;28;20023;-18
2020/12/25 07:58:49;;;;;;;1.63;0.20;;;;;;;;;;5113093;28;20049;-19
2020/12/25 08:01:15;;;;;;;0.20;0.20;;;;;;;;;;5113275;28;20048;-19
2020/12/25 08:03:42;;;;;;;5.47;3.00;;;;;;;;;;5113201;28;20039;-19
2020/12/25 08:06:08;;;;;;;0.17;0.10;;;;;;;;;;5113015;28;20458;-16
2020/12/25 08:08:35;;;;;;;0.10;0.10;;;;;;;;;;5113090;28;20024;-21
2020/12/25 08:11:00;;;;;;;1.55;1.05;;;;;;;;;;5112849;28;20031;-20
2020/12/25 08:13:26;;;;;;;1.25;0.25;;;;;;;;;;5111556;28;20023;-19
2020/12/25 08:15:51;;;;;;;5.60;1.08;;;;;;;;;;5113006;28;20470;-20
2020/12/25 08:18:17;;;;;;;2.25;0.55;;;;;;;;;;5111631;28;20024;-18
2020/12/25 08:20:43;;;;;;;0.77;0.40;;;;;;;;;;5113039;28;20065;-18
2020/12/25 08:23:08;;;;;;;1.60;0.47;;;;;;;;;;5111381;28;20102;-18
2020/12/25 08:25:34;;;;;;;0.52;0.32;;;;;;;;;;5113031;28;20030;-18
2020/12/25 08:27:59;;;;;;;0.50;0.40;;;;;;;;;;5113054;28;20476;-17
2020/12/25 08:30:25;;;;;;;0.30;0.30;;;;;;;;;;5112855;28;20462;-18
2020/12/25 08:32:58;;;;;;;0.20;0.10;;;;;;;;;;5112914;28;20062;-18
2020/12/25 08:35:26;;;;;;;0.75;0.32;;;;;;;;;;5112668;28;20036;-18
2020/12/25 08:37:52;;;;;;;2.60;0.60;;;;;;;;;;5112885;28;20073;-19
2020/12/25 08:40:17;;;;;;;0.45;0.30;;;;;;;;;;5112589;28;20042;-20
2020/12/25 08:42:43;;;;;;;0.30;0.10;;;;;;;;;;5112557;28;20041;-18
2020/12/25 08:45:09;;;;;;;0.75;0.30;;;;;;;;;;5112600;28;20119;-18
2020/12/25 08:47:34;;;;;;;0.13;0.10;;;;;;;;;;5111164;28;20043;-18
2020/12/25 08:50:00;;;;;;;0.45;0.30;;;;;;;;;;5111408;28;20478;-17
2020/12/25 08:52:26;;;;;;;0.35;0.28;;;;;;;;;;5112318;28;20123;-19
2020/12/25 08:54:55;;;;;;;0.10;0.10;;;;;;;;;;5112528;28;20031;-23
2020/12/25 08:57:21;;;;;;;2.17;0.45;;;;;;;;;;5112697;28;20019;-18
2020/12/25 08:59:46;;;;;;;0.20;0.20;;;;;;;;;;5111151;28;20035;-17
2020/12/25 09:02:12;;;;;;;0.75;0.65;;;;;;;;;;5112450;28;20012;-18
2020/12/25 09:04:37;;;;;;;4.78;3.17;;;;;;;;;;5110989;28;20031;-17
2020/12/25 09:07:03;;;;;;;0.82;0.60;;;;;;;;;;5114019;28;20019;-16
2020/12/25 09:09:28;;;;;;;2.63;0.75;;;;;;;;;;5115214;28;20028;-18
2020/12/25 09:11:53;;;;;;;0.32;0.28;;;;;;;;;;5116146;28;20011;-18
2020/12/25 09:14:19;;;;;;;2.75;0.20;;;;;;;;;;5114872;28;20486;-19
2020/12/25 09:16:44;;;;;;;0.55;0.40;;;;;;;;;;5116315;28;20477;-18
2020/12/25 09:19:10;;;;;;;0.20;0.20;;;;;;;;;;4746697;28;10000121;-18
2020/12/25 09:21:36;;;;;;;0.28;0.28;;;;;;;;;;5091961;28;20528;-19
2020/12/25 09:24:02;;;;;;;0.85;0.85;;;;;;;;;;5091840;28;20035;-19
2020/12/25 09:26:28;;;;;;;0.63;0.63;;;;;;;;;;5091551;28;20020;-19
2020/12/25 09:28:54;;;;;;;4.38;1.08;;;;;;;;;;5091997;28;20031;-20
2020/12/25 09:31:19;;;;;;;0.17;0.17;;;;;;;;;;5091123;28;20369;-18
2020/12/25 09:33:45;;;;;;;1.00;0.50;;;;;;;;;;5091390;28;20069;-17
2020/12/25 09:36:10;;;;;;;0.40;0.17;;;;;;;;;;5091757;28;20023;-19
2020/12/25 09:38:43;;;;;;;0.25;0.20;;;;;;;;;;5091610;28;20062;-17
2020/12/25 09:41:09;;;;;;;0.65;0.17;;;;;;;;;;5091835;28;20024;-18
2020/12/25 09:43:35;;;;;;;0.43;0.30;;;;;;;;;;5091495;28;20027;-18
2020/12/25 09:46:01;;;;;;;0.70;0.30;;;;;;;;;;5111408;28;20050;-18
2020/12/25 09:48:27;;;;;;;0.28;0.20;;;;;;;;;;5110016;28;20027;-17
2020/12/25 09:50:52;;;;;;;0.40;0.40;;;;;;;;;;5101337;28;20051;-19
2020/12/25 09:53:18;;;;;;;0.80;0.32;;;;;;;;;;5095841;28;20043;-18
2020/12/25 09:55:43;;;;;;;0.28;0.22;;;;;;;;;;5098589;28;20037;-18
2020/12/25 09:58:09;;;;;;;0.93;0.28;;;;;;;;;;5111701;28;20031;-18
2020/12/25 10:00:35;;;;;;;0.20;0.20;;;;;;;;;;5111479;27;20049;-18
2020/12/25 10:03:00;;;;;;;0.47;0.32;;;;;;;;;;5111880;28;20027;-18
2020/12/25 10:05:26;;;;;;;0.80;0.17;;;;;;;;;;5111633;28;20059;-18
2020/12/25 10:07:54;;;;;;;2.28;0.20;;;;;;;;;;5109758;28;20024;-16
2020/12/25 10:10:20;;;;;;;0.52;0.35;;;;;;;;;;5111832;28;20024;-17
2020/12/25 10:12:47;;;;;;;0.75;0.22;;;;;;;;;;5110208;28;20046;-17
2020/12/25 10:15:13;;;;;;;0.38;0.25;;;;;;;;;;5109846;28;20443;-19
2020/12/25 10:17:38;;;;;;;0.63;0.40;;;;;;;;;;5108905;28;20012;-17
2020/12/25 10:20:04;;;;;;;0.52;0.50;;;;;;;;;;5093963;28;20032;-18
2020/12/25 10:22:29;;;;;;;0.20;0.20;;;;;;;;;;5090556;28;20485;-19
2020/12/25 10:24:55;;;;;;;0.30;0.30;;;;;;;;;;5089830;28;20094;-18
2020/12/25 10:27:20;;;;;;;15.85;8.88;;;;;;;;;;5089621;28;20105;-18
2020/12/25 10:29:46;;;;;;;1.13;0.80;;;;;;;;;;5090704;28;20068;-20
2020/12/25 10:32:11;;;;;;;1.30;1.00;;;;;;;;;;5089213;28;20023;-20
2020/12/25 10:34:36;;;;;;;0.68;0.63;;;;;;;;;;5082156;28;20108;-17
2020/12/25 10:37:02;;;;;;;0.70;0.55;;;;;;;;;;5097271;28;20015;-18
2020/12/25 10:39:27;;;;;;;0.55;0.55;;;;;;;;;;5090733;28;20070;-19
2020/12/25 10:41:53;;;;;;;0.85;0.50;;;;;;;;;;5089058;28;20020;-17
2020/12/25 10:44:18;;;;;;;0.50;0.50;;;;;;;;;;5090520;28;20028;-19
2020/12/25 10:46:44;;;;;;;6.05;0.60;;;;;;;;;;5089301;28;20019;-19
2020/12/25 10:49:09;;;;;;;0.28;0.10;;;;;;;;;;5090690;28;20344;-19
2020/12/25 10:51:35;;;;;;;0.20;0.20;;;;;;;;;;5090265;28;20081;-24
2020/12/25 10:54:00;;;;;;;4.55;1.77;;;;;;;;;;5105801;28;20036;-17
2020/12/25 10:56:27;;;;;;;0.10;0.10;;;;;;;;;;5110831;28;20016;-18
2020/12/25 10:58:53;;;;;;;3.03;0.82;;;;;;;;;;5110599;28;20550;-17
2020/12/25 11:01:26;;;;;;;1.75;0.85;;;;;;;;;;5109181;28;20019;-18
2020/12/25 11:03:52;;;;;;;4.00;0.88;;;;;;;;;;5109147;28;20065;-18
2020/12/25 11:06:18;;;;;;;0.77;0.65;;;;;;;;;;5109128;28;20016;-20
2020/12/25 11:08:47;;;;;;;0.10;0.10;;;;;;;;;;5110544;28;20035;-17
2020/12/25 11:11:13;;;;;;;0.10;0.10;;;;;;;;;;5110701;28;20466;-17
2020/12/25 11:13:42;;;;;;;0.10;0.10;;;;;;;;;;5110542;28;20036;-17
2020/12/25 11:16:07;;;;;;;0.00;0.00;;;;;;;;;;5110655;28;20019;-17
2020/12/25 11:18:33;;;;;;;1.08;0.30;;;;;;;;;;5109818;28;20019;-17
2020/12/25 11:20:59;;;;;;;0.10;0.10;;;;;;;;;;5110068;28;20645;-18
2020/12/25 11:23:24;;;;;;;0.28;0.13;;;;;;;;;;5110359;28;20039;-19
2020/12/25 11:25:49;;;;;;;0.25;0.22;;;;;;;;;;5110209;28;20533;-18
2020/12/25 11:28:15;;;;;;;0.10;0.10;;;;;;;;;;5109973;28;20042;-18
2020/12/25 11:30:41;;;;;;;0.38;0.17;;;;;;;;;;5109650;28;20099;-16
2020/12/25 11:33:06;;;;;;;0.20;0.08;;;;;;;;;;5110099;28;20055;-18
2020/12/25 11:35:32;;;;;;;0.95;0.40;;;;;;;;;;5110320;28;20018;-18
2020/12/25 11:37:58;;;;;;;0.52;0.28;;;;;;;;;;5108891;28;20498;-17
2020/12/25 11:40:24;;;;;;;1.70;0.60;;;;;;;;;;5109927;28;20015;-18
2020/12/25 11:42:49;;;;;;;0.30;0.20;;;;;;;;;;5109560;28;20061;-18
2020/12/25 11:45:14;;;;;;;0.40;0.20;;;;;;;;;;5109818;28;20015;-18
2020/12/25 11:47:40;;;;;;;0.28;0.28;;;;;;;;;;5109742;28;20118;-19
2020/12/25 11:50:05;;;;;;;0.52;0.30;;;;;;;;;;5109802;28;20032;-19
2020/12/25 11:52:31;;;;;;;0.22;0.20;;;;;;;;;;5109916;28;20040;-19
2020/12/25 11:54:57;;;;;;;0.55;0.30;;;;;;;;;;5109457;28;20519;-18
2020/12/25 11:57:22;;;;;;;0.93;0.30;;;;;;;;;;5109878;28;20161;-18
2020/12/25 11:59:48;;;;;;;0.10;0.10;;;;;;;;;;5109868;28;20019;-19
2020/12/25 12:02:14;;;;;;;1.33;0.20;;;;;;;;;;5109960;28;20059;-19
2020/12/25 12:04:39;;;;;;;0.45;0.45;;;;;;;;;;5109476;28;20030;-18
2020/12/25 12:07:05;;;;;;;0.30;0.20;;;;;;;;;;5109100;28;20594;-17
2020/12/25 12:09:30;;;;;;;3.47;0.88;;;;;;;;;;5109452;28;20020;-19
2020/12/25 12:11:56;;;;;;;1.13;0.28;;;;;;;;;;5109462;28;20035;-19
2020/12/25 12:14:21;;;;;;;0.13;0.10;;;;;;;;;;5108130;28;20051;-18
2020/12/25 12:16:51;;;;;;;0.40;0.13;;;;;;;;;;5109385;28;20143;-18
2020/12/25 12:19:16;;;;;;;0.10;0.10;;;;;;;;;;5107431;28;20051;-18
2020/12/25 12:21:42;;;;;;;0.20;0.20;;;;;;;;;;5107747;28;20085;-18
2020/12/25 12:24:07;;;;;;;0.63;0.08;;;;;;;;;;5108878;28;20020;-18
2020/12/25 12:26:33;;;;;;;0.77;0.30;;;;;;;;;;5109085;28;20378;-17
2020/12/25 12:28:58;;;;;;;0.30;0.10;;;;;;;;;;5107775;28;20028;-19
2020/12/25 12:31:24;;;;;;;0.10;0.10;;;;;;;;;;5108459;28;20047;-19
2020/12/25 12:33:50;;;;;;;0.00;0.00;;;;;;;;;;5108857;28;20114;-17
2020/12/25 12:36:16;;;;;;;0.08;0.08;;;;;;;;;;5109070;28;20020;-17
2020/12/25 12:38:41;;;;;;;0.10;0.10;;;;;;;;;;5108911;28;20366;-18
2020/12/25 12:41:07;;;;;;;0.08;0.05;;;;;;;;;;5109355;28;20027;-17
2020/12/25 12:43:32;;;;;;;1.67;0.60;;;;;;;;;;5113145;28;20027;-18
2020/12/25 12:45:58;;;;;;;0.10;0.08;;;;;;;;;;5113404;28;20158;-18
2020/12/25 12:48:23;;;;;;;0.00;0.00;;;;;;;;;;5112849;28;20420;-18
2020/12/25 12:50:49;;;;;;;0.00;0.00;;;;;;;;;;5112835;28;20125;-19
2020/12/25 12:53:15;;;;;;;0.10;0.10;;;;;;;;;;5112598;28;20046;-19
2020/12/25 12:55:40;;;;;;;0.10;0.03;;;;;;;;;;5110912;28;20099;-18
2020/12/25 12:58:06;;;;;;;0.00;0.00;;;;;;;;;;5112750;28;20057;-18
2020/12/25 13:00:31;;;;;;;0.05;0.05;;;;;;;;;;5112625;28;20168;-18
2020/12/25 13:02:57;;;;;;;0.90;0.10;;;;;;;;;;5111174;28;20027;-18
2020/12/25 13:05:22;;;;;;;0.10;0.10;;;;;;;;;;5112546;28;20067;-19
2020/12/25 13:07:47;;;;;;;0.00;0.00;;;;;;;;;;5112235;28;20514;-17
2020/12/25 13:10:13;;;;;;;1.85;0.10;;;;;;;;;;5112656;28;20096;-18
2020/12/25 13:12:38;;;;;;;0.00;0.00;;;;;;;;;;5112362;28;20032;-19
2020/12/25 13:15:04;;;;;;;0.10;0.05;;;;;;;;;;5111955;28;20047;-18
2020/12/25 13:17:29;;;;;;;1.95;0.08;;;;;;;;;;5112081;28;20077;-19
2020/12/25 13:19:55;;;;;;;0.45;0.00;;;;;;;;;;5096670;28;20053;-19
2020/12/25 13:22:20;;;;;;;0.10;0.10;;;;;;;;;;5090454;28;20119;-20
2020/12/25 13:24:46;;;;;;;0.20;0.10;;;;;;;;;;5090071;28;20038;-20
2020/12/25 13:27:11;;;;;;;0.00;0.00;;;;;;;;;;5090764;28;20020;-21
2020/12/25 13:29:37;;;;;;;0.10;0.10;;;;;;;;;;5091754;28;20024;-19
2020/12/25 13:32:02;;;;;;;0.00;0.00;;;;;;;;;;5091875;28;20032;-20
2020/12/25 13:34:28;;;;;;;0.08;0.08;;;;;;;;;;5093033;28;20043;-19
2020/12/25 13:36:53;;;;;;;0.10;0.00;;;;;;;;;;5110766;28;20023;-20
2020/12/25 13:39:19;;;;;;;0.10;0.10;;;;;;;;;;5111812;28;20607;-21
2020/12/25 13:41:45;;;;;;;0.10;0.10;;;;;;;;;;5111713;28;20110;-20
2020/12/25 13:44:10;;;;;;;0.30;0.20;;;;;;;;;;5111737;27;20487;-18
2020/12/25 13:46:36;;;;;;;0.32;0.32;;;;;;;;;;5111886;27;20068;-19
2020/12/25 13:49:03;;;;;;;0.40;0.10;;;;;;;;;;5111946;28;20125;-20
2020/12/25 13:51:28;;;;;;;0.38;0.30;;;;;;;;;;5111569;28;20043;-18
2020/12/25 13:53:54;;;;;;;0.00;0.00;;;;;;;;;;5109299;28;20039;-20
2020/12/25 13:56:19;;;;;;;0.55;0.35;;;;;;;;;;5091350;28;20370;-20
2020/12/25 13:58:45;;;;;;;1.10;0.75;;;;;;;;;;5089766;28;20107;-18
2020/12/25 14:01:14;;;;;;;0.70;0.55;;;;;;;;;;5090052;28;20009;-20
2020/12/25 14:03:40;;;;;;;0.57;0.32;;;;;;;;;;5089625;28;20459;-22
2020/12/25 14:06:06;;;;;;;0.40;0.30;;;;;;;;;;5090704;28;20023;-19
2020/12/25 14:08:32;;;;;;;0.63;0.08;;;;;;;;;;5089689;28;20038;-18
2020/12/25 14:10:57;;;;;;;2.22;0.15;;;;;;;;;;5091129;28;20016;-19
2020/12/25 14:13:23;;;;;;;0.00;0.00;;;;;;;;;;5100978;28;20027;-19
2020/12/25 14:15:49;;;;;;;0.10;0.10;;;;;;;;;;5111481;28;20103;-18
2020/12/25 14:18:15;;;;;;;0.00;0.00;;;;;;;;;;5111158;28;20031;-19
2020/12/25 14:20:40;;;;;;;0.03;0.03;;;;;;;;;;5090902;28;20008;-20
2020/12/25 14:23:07;;;;;;;0.00;0.00;;;;;;;;;;5090658;28;20111;-19
2020/12/25 14:25:33;;;;;;;0.50;0.30;;;;;;;;;;5090831;28;20062;-20
2020/12/25 14:27:58;;;;;;;0.00;0.00;;;;;;;;;;5090614;28;20062;-20
2020/12/25 14:30:24;;;;;;;0.17;0.15;;;;;;;;;;5088961;28;20028;-20